createdAt,value
2023-12-01T05:24:18.828Z,65.22
2023-12-01T05:26:53.836Z,56.15
2023-12-01T05:29:28.112Z,65.88
2023-12-01T05:32:00.730Z,64.60
2023-12-01T05:34:34.576Z,63.00
2023-12-01T05:37:07.409Z,58.72
2023-12-01T05:39:40.419Z,67.93
2023-12-01T05:42:13.004Z,54.13
2023-12-01T05:44:45.759Z,51.00
2023-12-01T05:47:18.368Z,53.97
2023-12-01T05:49:51.661Z,52.05
2023-12-01T05:54:57.283Z,74.97
2023-12-01T05:57:29.821Z,53.30
2023-12-01T06:00:02.762Z,53.42
2023-12-01T06:02:45.277Z,48.17
2023-12-01T06:05:18.626Z,69.18
2023-12-01T06:07:55.779Z,55.22
2023-12-01T06:10:29.353Z,54.10
2023-12-01T06:15:34.676Z,45.80
2023-12-01T06:18:07.698Z,58.63
2023-12-01T06:20:40.385Z,71.45
2023-12-01T06:23:13.359Z,53.17
2023-12-01T06:25:48.196Z,41.00
2023-12-01T06:28:21.171Z,55.42
2023-12-01T06:30:54.554Z,56.53
2023-12-01T06:33:28.153Z,41.70
2023-12-01T06:36:00.688Z,48.17
2023-12-01T06:38:33.991Z,39.93
2023-12-01T06:41:06.904Z,83.28
2023-12-01T06:43:39.506Z,35.70
2023-12-01T06:46:12.197Z,49.10
2023-12-01T06:48:44.838Z,49.77
2023-12-01T06:51:17.433Z,39.17
2023-12-01T06:53:50.020Z,39.08
2023-12-01T06:56:23.124Z,39.50
2023-12-01T06:58:56.759Z,47.13
2023-12-01T07:01:30.149Z,86.32
2023-12-01T07:04:09.228Z,42.75
2023-12-01T07:06:47.691Z,55.00
2023-12-01T07:09:20.786Z,98.47
2023-12-01T07:11:53.436Z,95.18
2023-12-01T07:14:26.044Z,59.28
2023-12-01T07:16:59.803Z,44.40
2023-12-01T07:19:37.208Z,51.05
2023-12-01T07:22:12.272Z,108.22
2023-12-01T07:24:44.998Z,49.90
2023-12-01T07:27:17.589Z,71.47
2023-12-01T07:29:51.390Z,34.25
2023-12-01T07:34:56.860Z,47.22
2023-12-01T07:37:29.446Z,52.10
2023-12-01T07:40:02.883Z,39.17
2023-12-01T07:42:35.571Z,49.40
2023-12-01T07:45:10.261Z,59.63
2023-12-01T07:47:44.678Z,45.08
2023-12-01T07:50:18.321Z,54.00
2023-12-01T07:52:51.477Z,51.15
2023-12-01T07:55:24.206Z,49.88
2023-12-01T07:57:57.211Z,44.70
2023-12-01T08:00:29.983Z,62.30
2023-12-01T08:03:02.991Z,46.20
2023-12-01T08:05:37.832Z,40.25
2023-12-01T08:08:11.049Z,38.20
2023-12-01T08:10:44.652Z,37.00
2023-12-01T08:13:17.404Z,40.50
2023-12-01T08:15:50.248Z,34.05
2023-12-01T08:18:23.111Z,32.47
2023-12-01T08:20:55.792Z,41.67
2023-12-01T08:23:29.066Z,51.47
2023-12-01T08:26:01.954Z,29.55
2023-12-01T08:28:34.600Z,28.35
2023-12-01T08:31:07.308Z,43.57
2023-12-01T08:33:40.057Z,57.60
2023-12-01T08:36:13.281Z,33.40
2023-12-01T08:38:51.060Z,28.77
2023-12-01T08:41:25.089Z,31.92
2023-12-01T08:43:57.980Z,31.40
2023-12-01T08:46:30.563Z,25.42
2023-12-01T08:49:04.154Z,32.83
2023-12-01T14:03:29.835Z,50.38
2023-12-01T14:06:05.301Z,45.65
2023-12-01T14:08:37.859Z,47.63
2023-12-01T14:11:10.502Z,48.60
2023-12-01T14:13:43.088Z,55.10
2023-12-01T14:16:16.002Z,45.30
2023-12-01T14:18:50.113Z,51.90
2023-12-01T14:21:22.914Z,50.67
2023-12-01T14:23:56.159Z,49.75
2023-12-01T14:26:28.765Z,49.65
2023-12-01T14:29:01.828Z,47.17
2023-12-01T14:31:34.400Z,41.53
2023-12-01T14:34:08.246Z,56.83
2023-12-01T14:39:13.796Z,49.40
2023-12-01T14:41:46.620Z,53.77
2023-12-01T14:44:20.096Z,51.03
2023-12-01T14:46:52.795Z,46.15
2023-12-01T14:49:25.351Z,48.63
2023-12-01T14:51:57.880Z,49.15
2023-12-01T14:54:30.505Z,71.63
2023-12-01T14:57:06.706Z,106.13
2023-12-01T14:59:43.130Z,73.15
2023-12-01T15:02:16.683Z,53.70
2023-12-01T15:04:49.703Z,72.82
2023-12-01T15:07:22.634Z,53.13
2023-12-01T15:09:55.184Z,38.88
2023-12-01T15:12:27.812Z,47.88
2023-12-01T15:15:00.421Z,51.40
2023-12-01T15:17:33.072Z,52.05
2023-12-01T15:20:06.786Z,60.40
2023-12-01T15:22:40.444Z,54.65
2023-12-01T15:25:13.187Z,49.80
2023-12-01T15:27:45.816Z,42.83
2023-12-01T15:30:19.010Z,51.70
2023-12-01T15:32:52.393Z,47.17
2023-12-01T15:35:24.984Z,47.88
2023-12-01T15:37:57.560Z,43.58
2023-12-01T15:40:30.363Z,55.15
2023-12-01T15:43:03.209Z,53.35
2023-12-01T15:45:36.670Z,55.58
2023-12-01T15:48:09.353Z,49.25
2023-12-01T15:50:42.694Z,67.83
2023-12-01T15:53:15.532Z,53.95
2023-12-01T15:55:48.115Z,76.60
2023-12-01T15:58:20.701Z,169.53
2023-12-01T16:00:53.353Z,83.60
2023-12-01T16:03:26.091Z,123.00
2023-12-01T16:06:01.281Z,104.53
2023-12-01T16:08:34.110Z,55.03
2023-12-01T16:11:08.088Z,72.38
2023-12-01T16:13:40.789Z,123.45
2023-12-01T16:16:14.309Z,152.40
2023-12-01T16:21:21.018Z,104.28
2023-12-01T16:23:54.301Z,191.68
2023-12-01T16:26:26.933Z,114.75
2023-12-01T16:29:00.103Z,124.95
2023-12-01T16:31:32.676Z,161.90
2023-12-01T16:36:30.851Z,299.65
2023-12-01T16:39:05.963Z,151.03
2023-12-01T16:41:38.613Z,95.85
2023-12-01T16:44:11.146Z,356.50
2023-12-01T16:46:43.732Z,203.23
2023-12-01T16:49:16.371Z,190.82
2023-12-01T16:51:49.118Z,115.90
2023-12-01T16:54:21.695Z,144.93
2023-12-01T16:56:55.082Z,306.05
2023-12-01T16:59:27.594Z,138.13
2023-12-01T17:02:01.120Z,175.43
2023-12-01T17:07:09.906Z,180.55
2023-12-01T17:09:42.714Z,78.05
2023-12-01T17:12:15.407Z,82.35
2023-12-01T17:14:48.315Z,85.95
2023-12-01T17:17:21.075Z,49.92
2023-12-01T17:19:53.904Z,129.37
2023-12-01T17:22:26.607Z,134.32
2023-12-01T17:24:59.994Z,83.25
2023-12-01T17:27:32.702Z,64.88
2023-12-01T17:30:05.577Z,63.95
2023-12-01T17:32:39.440Z,161.35
2023-12-01T17:35:12.059Z,153.25
2023-12-01T17:37:45.304Z,58.30
2023-12-01T17:40:18.896Z,67.63
2023-12-01T17:45:23.953Z,43.58
2023-12-01T17:47:57.358Z,46.10
2023-12-01T17:50:29.940Z,106.85
2023-12-01T17:53:02.521Z,75.13
2023-12-01T17:55:35.055Z,73.78
2023-12-01T17:58:07.644Z,79.75
2023-12-01T18:00:40.223Z,102.10
2023-12-01T18:03:13.443Z,58.23
2023-12-01T18:05:46.138Z,47.78
2023-12-01T18:08:18.875Z,47.77
2023-12-01T18:10:51.458Z,41.17
2023-12-01T18:13:24.416Z,39.80
2023-12-01T18:15:57.737Z,38.47
2023-12-01T18:18:32.281Z,40.05
2023-12-01T18:21:05.593Z,42.45
2023-12-01T18:23:38.186Z,40.20
2023-12-01T18:26:11.013Z,43.90
2023-12-01T18:28:43.728Z,39.90
2023-12-01T18:31:17.061Z,43.20
2023-12-01T18:33:49.940Z,40.78
2023-12-01T18:36:22.666Z,44.67
2023-12-01T18:38:55.530Z,50.83
2023-12-01T18:41:28.326Z,45.60
2023-12-01T18:44:01.085Z,48.40
2023-12-01T18:46:33.815Z,42.90
2023-12-01T18:49:06.468Z,46.63
2023-12-01T18:51:39.967Z,41.58
2023-12-01T18:56:45.175Z,36.58
2023-12-01T18:59:18.002Z,37.97
2023-12-01T19:01:50.734Z,42.08
2023-12-01T19:04:23.714Z,40.20
2023-12-01T19:06:56.751Z,40.30
2023-12-01T19:09:30.541Z,37.50
2023-12-01T19:12:05.276Z,41.45
2023-12-01T19:14:38.623Z,43.47
2023-12-01T19:17:12.368Z,40.67
2023-12-01T19:19:44.926Z,41.60
2023-12-01T19:22:17.494Z,44.10
2023-12-01T19:24:50.359Z,41.70
2023-12-01T19:27:23.093Z,37.92
2023-12-01T19:29:55.757Z,39.25
2023-12-01T19:32:28.524Z,39.87
2023-12-01T19:35:01.119Z,44.77
2023-12-01T19:37:33.740Z,38.57
2023-12-01T19:40:07.525Z,35.97
2023-12-01T19:42:40.139Z,46.85
2023-12-01T19:45:12.778Z,38.97
2023-12-01T19:47:45.449Z,39.83
2023-12-01T19:50:18.567Z,35.97
2023-12-01T19:52:51.218Z,37.10
2023-12-01T19:55:27.393Z,40.90
2023-12-01T19:58:00.011Z,42.25
2023-12-01T20:00:32.944Z,40.27
2023-12-01T20:03:05.805Z,46.08
2023-12-01T20:05:38.518Z,41.85
2023-12-01T20:08:11.106Z,44.03
2023-12-01T20:10:44.410Z,44.85
2023-12-01T20:13:17.130Z,35.50
2023-12-01T20:15:49.983Z,43.20
2023-12-01T20:18:22.757Z,45.85
2023-12-01T20:20:55.370Z,45.22
2023-12-01T20:23:28.079Z,36.30
2023-12-01T20:26:01.430Z,43.60
2023-12-01T20:28:34.899Z,53.40
2023-12-01T20:31:07.469Z,45.42
2023-12-01T20:33:40.729Z,40.70
2023-12-01T20:36:13.976Z,42.05
2023-12-01T20:38:47.953Z,46.60
2023-12-01T20:41:20.611Z,38.05
2023-12-01T20:43:53.277Z,41.00
2023-12-01T20:46:25.864Z,41.30
2023-12-01T20:48:58.518Z,41.35
2023-12-01T20:51:31.411Z,50.67
2023-12-01T20:54:04.053Z,40.50
2023-12-01T20:56:37.708Z,33.00
2023-12-01T20:59:11.854Z,39.63
2023-12-01T21:01:44.615Z,45.40
2023-12-01T21:04:17.712Z,41.75
2023-12-01T21:06:50.260Z,42.60
2023-12-01T21:09:23.545Z,48.25
2023-12-01T21:11:56.242Z,43.13
2023-12-01T21:14:29.257Z,45.13
2023-12-01T21:17:01.897Z,48.63
2023-12-01T21:19:34.896Z,37.75
2023-12-01T21:22:07.845Z,38.85
2023-12-01T21:24:40.854Z,38.10
2023-12-01T21:27:14.102Z,38.67
2023-12-01T21:29:48.102Z,31.88
2023-12-01T21:32:23.624Z,31.80
2023-12-01T21:34:56.290Z,33.35
2023-12-01T21:37:28.898Z,33.63
2023-12-01T21:40:02.242Z,36.17
2023-12-01T21:42:35.738Z,29.55
2023-12-01T21:45:09.034Z,36.85
2023-12-01T21:47:41.707Z,30.25
2023-12-01T21:50:14.437Z,29.13
2023-12-01T21:52:47.130Z,38.77
2023-12-01T21:55:20.104Z,38.38
2023-12-01T21:57:55.681Z,29.50
2023-12-01T22:00:29.601Z,34.75
2023-12-01T22:03:02.213Z,33.33
2023-12-01T22:05:36.362Z,30.60
2023-12-01T22:08:09.868Z,29.30
